Time,TemperatureF,DewpointF,PressureIn,WindDirection,WindDirectionDegrees,WindSpeedMPH,WindSpeedGustMPH,Humidity,HourlyPrecipIn,Conditions,Clouds,dailyrainin,SoftwareType,DateUTC
2013-01-21 00:07:00,49.8,33.8,30.04,North,0,0.0,-999.0,54,0.00,,,0.00,open2300 v1.10,2013-01-21 08:07:00,
2013-01-21 00:21:00,49.6,33.6,30.03,North,0,0.0,-999.0,54,0.00,,,0.00,open2300 v1.10,2013-01-21 08:21:00,
2013-01-21 00:36:00,49.3,33.8,30.03,North,0,0.0,-999.0,55,0.00,,,0.00,open2300 v1.10,2013-01-21 08:36:00,
2013-01-21 00:51:00,49.1,33.6,30.03,North,0,0.0,-999.0,55,0.00,,,0.00,open2300 v1.10,2013-01-21 08:51:00,
2013-01-21 01:07:00,48.9,34.3,30.02,North,0,0.0,-999.0,57,0.00,,,0.00,open2300 v1.10,2013-01-21 09:07:00,
2013-01-21 01:21:00,48.7,34.1,30.02,North,0,0.0,-999.0,57,0.00,,,0.00,open2300 v1.10,2013-01-21 09:21:00,
2013-01-21 01:36:00,48.4,34.8,30.02,North,0,0.0,-999.0,59,0.00,,,0.00,open2300 v1.10,2013-01-21 09:36:00,
2013-01-21 01:51:00,48.2,34.6,30.02,North,0,0.0,-999.0,59,0.00,,,0.00,open2300 v1.10,2013-01-21 09:51:00,
2013-01-21 02:07:00,48.0,34.9,30.02,North,0,0.0,-999.0,60,0.00,,,0.00,open2300 v1.10,2013-01-21 10:07:00,
2013-01-21 02:21:00,47.8,35.1,30.02,North,0,0.0,-999.0,61,0.00,,,0.00,open2300 v1.10,2013-01-21 10:21:00,
2013-01-21 02:36:00,47.3,34.9,30.02,North,0,0.0,-999.0,62,0.00,,,0.00,open2300 v1.10,2013-01-21 10:36:00,
2013-01-21 02:51:00,47.1,34.8,30.02,North,0,0.0,-999.0,62,0.00,,,0.00,open2300 v1.10,2013-01-21 10:51:00,
2013-01-21 03:07:00,46.9,34.6,30.01,North,0,0.0,-999.0,62,0.00,,,0.00,open2300 v1.10,2013-01-21 11:07:00,
2013-01-21 03:22:00,46.8,34.8,30.00,North,0,0.0,-999.0,63,0.00,,,0.00,open2300 v1.10,2013-01-21 11:22:00,
2013-01-21 03:36:00,46.8,34.8,30.00,North,0,0.0,-999.0,63,0.00,,,0.00,open2300 v1.10,2013-01-21 11:36:00,
2013-01-21 03:51:00,46.8,34.8,30.00,North,0,0.0,-999.0,63,0.00,,,0.00,open2300 v1.10,2013-01-21 11:51:00,
2013-01-21 04:07:00,46.6,34.6,30.00,North,0,0.0,-999.0,63,0.00,,,0.00,open2300 v1.10,2013-01-21 12:07:00,
2013-01-21 04:21:00,46.4,34.5,29.99,North,0,0.0,-999.0,63,0.00,,,0.00,open2300 v1.10,2013-01-21 12:21:00,
2013-01-21 04:36:00,46.6,34.6,29.99,North,0,0.0,-999.0,63,0.00,,,0.00,open2300 v1.10,2013-01-21 12:36:00,
2013-01-21 04:51:00,46.6,34.6,29.99,North,0,0.0,-999.0,63,0.00,,,0.00,open2300 v1.10,2013-01-21 12:51:00,
2013-01-21 05:07:00,46.6,34.2,29.99,North,0,0.0,-999.0,62,0.00,,,0.00,open2300 v1.10,2013-01-21 13:07:00,
2013-01-21 05:21:00,46.6,34.2,29.99,North,0,0.0,-999.0,62,0.00,,,0.00,open2300 v1.10,2013-01-21 13:21:00,
2013-01-21 05:36:00,46.2,33.9,29.98,North,0,0.0,-999.0,62,0.00,,,0.00,open2300 v1.10,2013-01-21 13:36:00,
2013-01-21 05:51:00,46.2,33.9,29.98,North,0,0.0,-999.0,62,0.00,,,0.00,open2300 v1.10,2013-01-21 13:51:00,
2013-01-21 06:07:00,46.2,33.9,29.99,North,0,0.0,-999.0,62,0.00,,,0.00,open2300 v1.10,2013-01-21 14:07:00,
2013-01-21 06:21:00,46.2,33.9,29.99,North,0,0.0,-999.0,62,0.00,,,0.00,open2300 v1.10,2013-01-21 14:21:00,
2013-01-21 06:36:00,46.0,33.7,29.99,North,0,0.0,-999.0,62,0.00,,,0.00,open2300 v1.10,2013-01-21 14:36:00,
2013-01-21 06:51:00,46.0,34.1,30.00,North,0,0.0,-999.0,63,0.00,,,0.00,open2300 v1.10,2013-01-21 14:51:00,
2013-01-21 07:06:00,46.0,34.1,30.00,North,0,0.0,-999.0,63,0.00,,,0.00,open2300 v1.10,2013-01-21 15:06:00,
2013-01-21 07:21:00,46.2,34.3,30.01,North,0,0.0,-999.0,63,0.00,,,0.00,open2300 v1.10,2013-01-21 15:21:00,
2013-01-21 07:36:00,46.6,34.6,30.01,North,0,0.0,-999.0,63,0.00,,,0.00,open2300 v1.10,2013-01-21 15:36:00,
2013-01-21 07:51:00,47.1,35.5,30.02,North,0,0.0,-999.0,64,0.00,,,0.00,open2300 v1.10,2013-01-21 15:51:00,
2013-01-21 08:06:00,47.8,36.6,30.02,North,0,0.0,-999.0,65,0.00,,,0.00,open2300 v1.10,2013-01-21 16:06:00,
2013-01-21 08:21:00,48.6,37.3,30.02,North,0,0.0,-999.0,65,0.00,,,0.00,open2300 v1.10,2013-01-21 16:21:00,
2013-01-21 08:36:00,48.9,37.2,30.03,North,0,0.0,-999.0,64,0.00,,,0.00,open2300 v1.10,2013-01-21 16:36:00,
2013-01-21 08:51:00,49.3,37.6,30.03,North,0,0.0,-999.0,64,0.00,,,0.00,open2300 v1.10,2013-01-21 16:51:00,
2013-01-21 09:06:00,49.6,37.9,30.04,North,0,0.0,-999.0,64,0.00,,,0.00,open2300 v1.10,2013-01-21 17:06:00,
2013-01-21 09:21:00,49.8,37.7,30.04,North,0,0.0,-999.0,63,0.00,,,0.00,open2300 v1.10,2013-01-21 17:21:00,
2013-01-21 09:36:00,50.5,38.0,30.04,North,0,0.0,-999.0,62,0.00,,,0.00,open2300 v1.10,2013-01-21 17:36:00,
2013-01-21 09:51:00,50.9,37.9,30.04,North,0,0.0,-999.0,61,0.00,,,0.00,open2300 v1.10,2013-01-21 17:51:00,
2013-01-21 10:06:00,51.6,38.1,30.04,North,0,0.0,-999.0,60,0.00,,,0.00,open2300 v1.10,2013-01-21 18:06:00,
2013-01-21 10:21:00,52.0,38.0,30.04,North,0,0.0,-999.0,59,0.00,,,0.00,open2300 v1.10,2013-01-21 18:21:00,
2013-01-21 10:36:00,52.3,37.9,30.05,North,0,0.0,-999.0,58,0.00,,,0.00,open2300 v1.10,2013-01-21 18:36:00,
2013-01-21 10:51:00,52.7,38.3,30.05,North,0,0.0,-999.0,58,0.00,,,0.00,open2300 v1.10,2013-01-21 18:51:00,
2013-01-21 11:06:00,52.9,39.4,30.05,North,0,0.0,-999.0,60,0.00,,,0.00,open2300 v1.10,2013-01-21 19:06:00,
2013-01-21 11:21:00,53.2,39.7,30.04,North,0,0.0,-999.0,60,0.00,,,0.00,open2300 v1.10,2013-01-21 19:21:00,
2013-01-21 11:36:00,53.2,39.7,30.04,North,0,0.0,-999.0,60,0.00,,,0.00,open2300 v1.10,2013-01-21 19:36:00,
2013-01-21 11:51:00,53.4,39.9,30.03,North,0,0.0,-999.0,60,0.00,,,0.00,open2300 v1.10,2013-01-21 19:51:00,
2013-01-21 12:06:00,53.8,40.3,30.03,North,0,0.0,-999.0,60,0.00,,,0.00,open2300 v1.10,2013-01-21 20:06:00,
2013-01-21 12:21:00,54.1,40.1,30.02,North,0,0.0,-999.0,59,0.00,,,0.00,open2300 v1.10,2013-01-21 20:21:00,
2013-01-21 12:36:00,54.5,40.4,30.02,North,0,0.0,-999.0,59,0.00,,,0.00,open2300 v1.10,2013-01-21 20:36:00,
2013-01-21 12:51:00,54.7,40.6,30.02,North,0,0.0,-999.0,59,0.00,,,0.00,open2300 v1.10,2013-01-21 20:51:00,
2013-01-21 13:06:00,55.0,40.5,30.01,North,0,0.0,-999.0,58,0.00,,,0.00,open2300 v1.10,2013-01-21 21:06:00,
2013-01-21 13:21:00,55.2,40.6,30.00,North,0,0.0,-999.0,58,0.00,,,0.00,open2300 v1.10,2013-01-21 21:21:00,
2013-01-21 13:36:00,55.6,40.5,29.99,North,0,0.0,-999.0,57,0.00,,,0.00,open2300 v1.10,2013-01-21 21:36:00,
2013-01-21 13:51:00,55.8,40.7,29.99,North,0,0.0,-999.0,57,0.00,,,0.00,open2300 v1.10,2013-01-21 21:51:00,
2013-01-21 14:06:00,55.9,40.9,29.99,North,0,0.0,-999.0,57,0.00,,,0.00,open2300 v1.10,2013-01-21 22:06:00,
2013-01-21 14:21:00,56.1,41.0,29.99,North,0,0.0,-999.0,57,0.00,,,0.00,open2300 v1.10,2013-01-21 22:21:00,
2013-01-21 14:36:00,56.3,41.2,29.98,North,0,0.0,-999.0,57,0.00,,,0.00,open2300 v1.10,2013-01-21 22:36:00,
2013-01-21 14:51:00,56.5,40.9,29.98,North,0,0.0,-999.0,56,0.00,,,0.00,open2300 v1.10,2013-01-21 22:51:00,
2013-01-21 15:06:00,56.8,41.3,29.98,North,0,0.0,-999.0,56,0.00,,,0.00,open2300 v1.10,2013-01-21 23:06:00,
2013-01-21 15:21:00,57.0,41.5,29.97,North,0,0.0,-999.0,56,0.00,,,0.00,open2300 v1.10,2013-01-21 23:21:00,
2013-01-21 15:36:00,57.0,41.0,29.97,North,0,0.0,-999.0,55,0.00,,,0.00,open2300 v1.10,2013-01-21 23:36:00,
2013-01-21 15:51:00,57.6,41.5,29.97,North,0,0.0,-999.0,55,0.00,,,0.00,open2300 v1.10,2013-01-21 23:51:00,
2013-01-21 16:06:00,58.1,42.0,29.96,North,0,0.0,-999.0,55,0.00,,,0.00,open2300 v1.10,2013-01-22 00:06:00,
2013-01-21 16:21:00,58.8,42.2,29.95,North,0,0.0,-999.0,54,0.00,,,0.00,open2300 v1.10,2013-01-22 00:21:00,
2013-01-21 16:36:00,58.8,42.2,29.95,North,0,0.0,-999.0,54,0.00,,,0.00,open2300 v1.10,2013-01-22 00:36:00,
2013-01-21 16:51:00,59.2,42.0,29.95,North,0,0.0,-999.0,53,0.00,,,0.00,open2300 v1.10,2013-01-22 00:51:00,
2013-01-21 17:06:00,59.4,41.7,29.96,North,0,0.0,-999.0,52,0.00,,,0.00,open2300 v1.10,2013-01-22 01:06:00,
2013-01-21 17:21:00,58.8,41.2,29.95,North,0,0.0,-999.0,52,0.00,,,0.00,open2300 v1.10,2013-01-22 01:21:00,
2013-01-21 17:36:00,58.6,41.5,29.96,North,0,0.0,-999.0,53,0.00,,,0.00,open2300 v1.10,2013-01-22 01:36:00,
2013-01-21 17:51:00,57.6,40.6,29.96,North,0,0.0,-999.0,53,0.00,,,0.00,open2300 v1.10,2013-01-22 01:51:00,
2013-01-21 18:06:00,56.8,40.3,29.96,North,0,0.0,-999.0,54,0.00,,,0.00,open2300 v1.10,2013-01-22 02:06:00,
2013-01-21 18:21:00,56.1,39.6,29.96,North,0,0.0,-999.0,54,0.00,,,0.00,open2300 v1.10,2013-01-22 02:21:00,
2013-01-21 18:36:00,55.6,39.1,29.96,North,0,0.0,-999.0,54,0.00,,,0.00,open2300 v1.10,2013-01-22 02:36:00,
2013-01-21 18:51:00,55.2,39.2,29.97,North,0,0.0,-999.0,55,0.00,,,0.00,open2300 v1.10,2013-01-22 02:51:00,
2013-01-21 19:06:00,55.0,39.1,29.97,North,0,0.0,-999.0,55,0.00,,,0.00,open2300 v1.10,2013-01-22 03:06:00,
2013-01-21 19:21:00,54.7,38.7,29.97,North,0,0.0,-999.0,55,0.00,,,0.00,open2300 v1.10,2013-01-22 03:21:00,
2013-01-21 19:36:00,54.5,38.6,29.97,North,0,0.0,-999.0,55,0.00,,,0.00,open2300 v1.10,2013-01-22 03:36:00,
2013-01-21 19:51:00,54.3,38.4,29.97,North,0,0.0,-999.0,55,0.00,,,0.00,open2300 v1.10,2013-01-22 03:51:00,
2013-01-21 20:06:00,54.1,38.2,29.97,North,0,0.0,-999.0,55,0.00,,,0.00,open2300 v1.10,2013-01-22 04:06:00,
2013-01-21 20:21:00,54.0,38.1,29.97,North,0,0.0,-999.0,55,0.00,,,0.00,open2300 v1.10,2013-01-22 04:21:00,
2013-01-21 20:36:00,53.8,37.9,29.98,North,0,0.0,-999.0,55,0.00,,,0.00,open2300 v1.10,2013-01-22 04:36:00,
2013-01-21 20:51:00,53.4,38.0,29.98,North,0,0.0,-999.0,56,0.00,,,0.00,open2300 v1.10,2013-01-22 04:51:00,
2013-01-21 21:06:00,53.2,37.9,29.99,North,0,0.0,-999.0,56,0.00,,,0.00,open2300 v1.10,2013-01-22 05:06:00,
2013-01-21 21:21:00,53.2,37.9,29.99,North,0,0.0,-999.0,56,0.00,,,0.00,open2300 v1.10,2013-01-22 05:21:00,
2013-01-21 21:36:00,53.2,37.9,29.99,North,0,0.0,-999.0,56,0.00,,,0.00,open2300 v1.10,2013-01-22 05:36:00,
2013-01-21 21:51:00,53.4,38.0,29.99,North,0,0.0,-999.0,56,0.00,,,0.00,open2300 v1.10,2013-01-22 05:51:00,
2013-01-21 22:06:00,53.2,38.3,30.00,North,0,0.0,-999.0,57,0.00,,,0.00,open2300 v1.10,2013-01-22 06:06:00,
2013-01-21 22:21:00,53.2,38.3,29.99,North,0,0.0,-999.0,57,0.00,,,0.00,open2300 v1.10,2013-01-22 06:21:00,
2013-01-21 22:36:00,52.9,38.0,29.99,North,0,0.0,-999.0,57,0.00,,,0.00,open2300 v1.10,2013-01-22 06:36:00,
2013-01-21 22:51:00,52.7,37.8,29.99,North,0,0.0,-999.0,57,0.00,,,0.00,open2300 v1.10,2013-01-22 06:51:00,
2013-01-21 23:06:00,52.5,37.6,29.99,North,0,0.0,-999.0,57,0.00,,,0.00,open2300 v1.10,2013-01-22 07:06:00,
2013-01-21 23:21:00,52.2,37.3,29.99,North,0,0.0,-999.0,57,0.00,,,0.00,open2300 v1.10,2013-01-22 07:21:00,
2013-01-21 23:36:00,52.0,37.6,29.98,North,0,0.0,-999.0,58,0.00,,,0.00,open2300 v1.10,2013-01-22 07:36:00,
2013-01-21 23:51:00,52.0,38.0,29.98,North,0,0.0,-999.0,59,0.00,,,0.00,open2300 v1.10,2013-01-22 07:51:00,